createdAt,value
2018-10-02T00:00:23.195Z,2.15
2018-10-02T00:02:52.861Z,2.40
2018-10-02T00:05:22.769Z,2.62
2018-10-02T00:07:52.737Z,2.00
2018-10-02T00:10:22.471Z,2.65
2018-10-02T00:12:57.420Z,2.10
2018-10-02T00:15:27.232Z,2.35
2018-10-02T00:17:56.854Z,2.50
2018-10-02T00:20:26.648Z,2.30
2018-10-02T00:22:56.332Z,2.47
2018-10-02T00:25:26.021Z,2.17
2018-10-02T00:27:55.640Z,2.40
2018-10-02T00:30:25.338Z,2.25
2018-10-02T00:32:55.103Z,3.42
2018-10-02T00:35:24.817Z,2.72
2018-10-02T00:37:54.559Z,3.02
2018-10-02T00:40:24.333Z,2.05
2018-10-02T00:42:54.009Z,3.00
2018-10-02T00:45:23.756Z,1.70
2018-10-02T00:47:53.430Z,1.87
2018-10-02T00:50:23.234Z,1.95
2018-10-02T00:52:53.228Z,2.05
2018-10-02T00:55:23.017Z,2.37
2018-10-02T00:57:52.733Z,1.70
2018-10-02T01:00:22.356Z,2.25
2018-10-02T01:02:52.104Z,2.17
2018-10-02T01:05:21.948Z,2.10
2018-10-02T01:07:51.661Z,3.12
2018-10-02T01:10:21.320Z,2.50
2018-10-02T01:12:51.111Z,2.47
2018-10-02T01:15:20.801Z,1.92
2018-10-02T01:17:50.505Z,1.87
2018-10-02T01:20:20.205Z,2.17
2018-10-02T01:22:50.001Z,2.00
2018-10-02T01:25:19.652Z,3.02
2018-10-02T01:27:49.361Z,2.42
2018-10-02T01:30:19.048Z,2.70
2018-10-02T01:32:48.696Z,2.20
2018-10-02T01:35:18.361Z,3.27
2018-10-02T01:37:48.005Z,2.67
2018-10-02T01:40:17.684Z,2.98
2018-10-02T01:42:47.542Z,3.60
2018-10-02T01:45:17.488Z,2.83
2018-10-02T01:47:47.172Z,2.40
2018-10-02T01:50:17.000Z,2.60
2018-10-02T01:52:47.120Z,2.65
2018-10-02T01:55:16.974Z,3.00
2018-10-02T01:57:46.740Z,2.45
2018-10-02T02:00:16.410Z,2.62
2018-10-02T02:02:46.120Z,3.50
2018-10-02T02:05:15.815Z,3.20
2018-10-02T02:07:45.450Z,3.45
2018-10-02T02:10:15.286Z,3.47
2018-10-02T02:12:45.004Z,4.87
2018-10-02T02:15:14.720Z,3.65
2018-10-02T02:17:44.434Z,3.17
2018-10-02T02:20:14.106Z,2.98
2018-10-02T02:22:43.812Z,3.30
2018-10-02T02:25:13.506Z,4.03
2018-10-02T02:27:43.306Z,3.20
2018-10-02T02:30:13.204Z,3.65
2018-10-02T02:32:42.901Z,3.85
2018-10-02T02:35:12.693Z,5.28
2018-10-02T02:37:42.328Z,3.65
2018-10-02T02:40:12.193Z,4.35
2018-10-02T02:42:41.843Z,4.37
2018-10-02T02:45:11.509Z,3.25
2018-10-02T02:47:46.536Z,3.22
2018-10-02T02:50:21.447Z,3.50
2018-10-02T02:52:54.405Z,3.77
2018-10-02T02:55:24.137Z,3.65
2018-10-02T02:57:54.018Z,4.92
2018-10-02T03:00:23.753Z,3.47
2018-10-02T03:02:53.476Z,3.52
2018-10-02T03:05:23.427Z,3.10
2018-10-02T03:07:53.198Z,2.65
2018-10-02T03:10:23.189Z,3.20
2018-10-02T03:12:52.970Z,3.55
2018-10-02T03:15:22.824Z,3.60
2018-10-02T03:17:52.473Z,2.80
2018-10-02T03:20:22.342Z,3.35
2018-10-02T03:22:52.043Z,3.27
2018-10-02T03:25:21.674Z,3.95
2018-10-02T03:27:51.410Z,3.42
2018-10-02T03:30:21.082Z,3.42
2018-10-02T03:32:50.806Z,3.50
2018-10-02T03:35:20.457Z,3.00
2018-10-02T03:37:50.151Z,4.05
2018-10-02T03:40:19.768Z,3.98
2018-10-02T03:42:49.443Z,3.40
2018-10-02T03:45:19.160Z,3.12
2018-10-02T03:47:48.812Z,2.95
2018-10-02T03:50:18.533Z,3.58
2018-10-02T03:52:48.149Z,3.42
2018-10-02T03:55:17.838Z,3.80
2018-10-02T03:57:47.593Z,2.98
2018-10-02T04:00:17.310Z,3.52
2018-10-02T04:02:47.061Z,3.30
2018-10-02T04:05:16.920Z,3.25
2018-10-02T04:07:46.804Z,3.60
2018-10-02T04:10:16.468Z,3.35
2018-10-02T04:12:46.168Z,2.80
2018-10-02T04:15:15.937Z,3.35
2018-10-02T04:17:45.596Z,4.28
2018-10-02T04:20:15.356Z,4.03
2018-10-02T04:22:45.163Z,3.02
2018-10-02T04:25:14.835Z,3.65
2018-10-02T04:27:44.512Z,2.50
2018-10-02T04:30:14.172Z,3.25
2018-10-02T04:32:44.914Z,3.35
2018-10-02T04:35:14.578Z,2.90
2018-10-02T04:37:44.238Z,3.50
2018-10-02T04:40:14.015Z,3.42
2018-10-02T04:42:43.651Z,2.80
2018-10-02T04:45:13.443Z,2.80
2018-10-02T04:47:43.247Z,3.00
2018-10-02T04:50:12.897Z,2.37
2018-10-02T04:52:42.520Z,2.83
2018-10-02T04:55:12.237Z,2.55
2018-10-02T04:57:41.868Z,2.42
2018-10-02T05:00:11.622Z,2.40
2018-10-02T05:02:41.361Z,2.27
2018-10-02T05:05:11.165Z,2.87
2018-10-02T05:07:40.786Z,2.65
2018-10-02T05:10:11.037Z,2.05
2018-10-02T05:12:40.819Z,3.25
2018-10-02T05:15:10.461Z,2.60
2018-10-02T05:17:40.206Z,1.60
2018-10-02T05:20:09.934Z,2.17
2018-10-02T05:22:39.603Z,2.00
2018-10-02T05:25:09.539Z,3.40
2018-10-02T05:27:39.301Z,2.55
2018-10-02T05:30:09.087Z,2.52
2018-10-02T05:32:38.891Z,2.10
2018-10-02T05:35:08.691Z,2.02
2018-10-02T05:37:38.293Z,2.45
2018-10-02T05:40:08.177Z,2.40
2018-10-02T05:42:37.834Z,2.40
2018-10-02T05:45:08.641Z,2.60
2018-10-02T05:47:38.410Z,3.27
2018-10-02T05:50:08.653Z,2.92
2018-10-02T05:52:38.513Z,2.95
2018-10-02T05:55:08.189Z,2.45
2018-10-02T05:57:38.864Z,2.30
2018-10-02T06:00:09.294Z,2.27
2018-10-02T06:02:39.027Z,2.27
2018-10-02T06:05:08.957Z,2.25
2018-10-02T06:07:38.649Z,2.17
2018-10-02T06:10:09.827Z,1.98
2018-10-02T06:12:39.585Z,2.35
2018-10-02T06:15:09.331Z,2.10
2018-10-02T06:17:39.036Z,2.20
2018-10-02T06:20:08.891Z,2.30
2018-10-02T06:22:38.661Z,2.85
2018-10-02T06:25:08.464Z,2.08
2018-10-02T06:27:38.138Z,2.60
2018-10-02T06:30:08.002Z,2.20
2018-10-02T06:32:37.715Z,2.27
2018-10-02T06:35:07.465Z,1.92
2018-10-02T06:37:37.225Z,2.30
2018-10-02T06:40:06.945Z,2.70
2018-10-02T06:42:36.968Z,2.52
2018-10-02T06:45:07.434Z,2.98
2018-10-02T06:47:37.174Z,2.95
2018-10-02T06:50:07.076Z,2.62
2018-10-02T06:52:37.172Z,3.80
2018-10-02T06:55:07.878Z,3.50
2018-10-02T06:57:37.928Z,2.72
2018-10-02T07:00:08.104Z,2.80
2018-10-02T07:02:37.951Z,3.77
2018-10-02T07:05:07.689Z,3.15
2018-10-02T07:07:37.579Z,3.25
2018-10-02T07:10:08.503Z,3.60
2018-10-02T07:12:38.382Z,2.75
2018-10-02T07:15:08.258Z,3.30
2018-10-02T07:17:38.089Z,2.95
2018-10-02T07:20:07.974Z,3.92
2018-10-02T07:22:38.637Z,3.50
2018-10-02T07:25:08.609Z,4.60
2018-10-02T07:27:38.501Z,4.60
2018-10-02T07:30:08.182Z,3.90
2018-10-02T07:32:37.921Z,3.60
2018-10-02T07:35:07.658Z,3.05
2018-10-02T07:37:37.411Z,2.67
2018-10-02T07:40:07.108Z,4.55
2018-10-02T07:42:36.865Z,3.87
2018-10-02T07:45:06.856Z,2.58
2018-10-02T07:47:36.650Z,2.75
2018-10-02T07:50:06.479Z,3.10
2018-10-02T07:52:36.657Z,2.80
2018-10-02T07:55:06.577Z,2.98
2018-10-02T07:57:36.326Z,2.85
2018-10-02T08:00:06.852Z,3.87
2018-10-02T08:02:36.624Z,2.90
2018-10-02T08:05:06.765Z,2.70
2018-10-02T08:07:36.414Z,3.98
2018-10-02T08:10:06.213Z,2.72
2018-10-02T08:12:35.965Z,2.52
2018-10-02T08:15:05.922Z,2.20
2018-10-02T08:17:35.789Z,2.67
2018-10-02T08:20:05.748Z,2.77
2018-10-02T08:22:35.425Z,2.55
2018-10-02T08:25:05.468Z,2.72
2018-10-02T08:27:35.275Z,2.35
2018-10-02T08:30:05.235Z,3.05
2018-10-02T08:32:34.903Z,2.42
2018-10-02T08:35:04.807Z,2.70
2018-10-02T08:37:34.630Z,2.85
2018-10-02T08:40:04.584Z,2.98
2018-10-02T08:42:34.305Z,3.22
2018-10-02T08:45:04.147Z,2.50
2018-10-02T08:47:34.077Z,2.65
2018-10-02T08:50:03.960Z,3.02
2018-10-02T08:52:33.781Z,2.98
2018-10-02T08:55:03.575Z,3.00
2018-10-02T08:57:33.316Z,3.25
2018-10-02T09:00:03.122Z,2.55
2018-10-02T09:02:32.891Z,2.90
2018-10-02T09:05:02.651Z,4.25
2018-10-02T09:07:32.509Z,3.30
2018-10-02T09:10:02.479Z,3.65
2018-10-02T09:12:32.187Z,4.20
2018-10-02T09:15:01.963Z,4.05
2018-10-02T09:17:31.743Z,4.17
2018-10-02T09:20:01.555Z,4.03
2018-10-02T09:22:31.329Z,5.50
2018-10-02T09:25:01.121Z,4.87
2018-10-02T09:27:30.698Z,3.90
2018-10-02T09:30:05.421Z,3.85
2018-10-02T09:32:40.160Z,4.05
2018-10-02T09:35:15.052Z,4.30
2018-10-02T09:38:47.935Z,4.53
2018-10-02T09:41:22.721Z,4.20
2018-10-02T09:43:55.227Z,4.85
2018-10-02T09:46:25.666Z,4.33
2018-10-02T09:48:55.543Z,4.85
2018-10-02T09:51:25.375Z,4.60
2018-10-02T09:53:55.070Z,5.95
2018-10-02T09:56:24.857Z,5.80
2018-10-02T09:58:54.547Z,4.70
2018-10-02T10:01:29.409Z,4.00
2018-10-02T10:03:59.146Z,4.50
2018-10-02T10:06:28.980Z,4.37
2018-10-02T10:08:58.626Z,4.87
2018-10-02T10:11:28.359Z,4.83
2018-10-02T10:13:58.091Z,4.05
2018-10-02T10:16:27.872Z,4.45
2018-10-02T10:18:57.585Z,6.05
2018-10-02T10:21:27.339Z,3.90
2018-10-02T10:23:57.010Z,4.45
2018-10-02T10:26:26.858Z,4.20
2018-10-02T10:28:56.662Z,3.77
2018-10-02T10:31:26.294Z,3.10
2018-10-02T10:33:56.078Z,4.37
2018-10-02T10:36:25.901Z,3.70
2018-10-02T10:38:55.609Z,3.50
2018-10-02T10:41:25.491Z,4.30
2018-10-02T10:43:55.254Z,3.55
2018-10-02T10:46:25.160Z,3.98
2018-10-02T10:48:54.869Z,3.45
2018-10-02T10:51:24.654Z,3.02
2018-10-02T10:53:54.443Z,3.65
2018-10-02T10:56:24.220Z,3.15
2018-10-02T10:58:53.935Z,3.20
2018-10-02T11:01:23.757Z,4.35
2018-10-02T11:03:53.650Z,4.90
2018-10-02T11:06:23.556Z,3.77
2018-10-02T11:08:53.346Z,4.92
2018-10-02T11:11:23.033Z,4.65
2018-10-02T11:13:52.957Z,4.75
2018-10-02T11:16:22.612Z,5.08
2018-10-02T11:18:52.392Z,4.33
2018-10-02T11:21:22.123Z,5.35
2018-10-02T11:23:52.001Z,5.20
2018-10-02T11:26:21.667Z,6.77
2018-10-02T11:28:51.442Z,4.15
2018-10-02T11:31:21.443Z,4.97
2018-10-02T11:33:51.102Z,4.58
2018-10-02T11:36:20.831Z,4.50
2018-10-02T11:38:50.593Z,4.83
2018-10-02T11:41:20.296Z,4.37
2018-10-02T11:43:50.346Z,4.03
2018-10-02T11:46:19.894Z,4.28
2018-10-02T11:48:49.715Z,4.63
2018-10-02T11:51:19.467Z,2.87
2018-10-02T11:53:49.192Z,2.70
2018-10-02T11:56:18.848Z,2.80
2018-10-02T11:58:48.520Z,2.50
2018-10-02T12:01:18.325Z,1.97
2018-10-02T12:03:47.974Z,2.00
2018-10-02T12:06:17.705Z,1.80
2018-10-02T12:08:47.520Z,2.10
2018-10-02T12:11:17.205Z,2.00
2018-10-02T12:13:46.986Z,1.93
2018-10-02T12:16:16.727Z,3.27
2018-10-02T12:18:46.436Z,2.40
2018-10-02T12:21:16.264Z,2.33
2018-10-02T12:23:45.980Z,2.00
2018-10-02T12:26:15.755Z,2.00
2018-10-02T12:28:45.448Z,1.70
2018-10-02T12:31:15.367Z,2.13
2018-10-02T12:33:45.247Z,1.83
2018-10-02T12:36:14.925Z,1.93
2018-10-02T12:38:44.737Z,1.70
2018-10-02T12:41:14.348Z,2.30
2018-10-02T12:43:44.106Z,1.77
2018-10-02T12:46:13.954Z,2.50
2018-10-02T12:48:43.665Z,1.80
2018-10-02T12:51:13.620Z,2.03
2018-10-02T12:53:43.312Z,1.80
2018-10-02T12:56:12.972Z,1.90
2018-10-02T12:58:42.747Z,2.20
2018-10-02T13:01:12.444Z,2.00
2018-10-02T13:03:42.186Z,3.13
2018-10-02T13:06:11.957Z,2.13
2018-10-02T13:08:41.735Z,2.00
2018-10-02T13:11:11.482Z,1.80
2018-10-02T13:13:41.146Z,1.73
2018-10-02T13:16:11.114Z,2.10
2018-10-02T13:18:41.215Z,1.67
2018-10-02T13:21:11.010Z,1.10
2018-10-02T13:23:40.741Z,1.70
2018-10-02T13:26:10.569Z,1.53
2018-10-02T13:28:40.390Z,1.87
2018-10-02T13:31:10.142Z,2.03
2018-10-02T13:33:39.861Z,2.10
2018-10-02T13:36:09.665Z,2.07
2018-10-02T13:38:46.114Z,1.93
2018-10-02T13:41:15.770Z,2.00
2018-10-02T13:43:45.469Z,1.63
2018-10-02T13:46:15.238Z,1.80
2018-10-02T13:48:45.002Z,2.20
2018-10-02T13:51:14.795Z,2.00
2018-10-02T13:53:44.727Z,1.80
2018-10-02T13:56:14.411Z,2.50
2018-10-02T13:58:44.371Z,2.60
2018-10-02T14:01:14.120Z,3.17
2018-10-02T14:03:43.806Z,3.07
2018-10-02T14:06:13.757Z,3.63
2018-10-02T14:08:43.472Z,2.10
2018-10-02T14:11:13.148Z,1.93
2018-10-02T14:13:42.862Z,2.10
2018-10-02T14:16:12.623Z,2.40
2018-10-02T14:18:44.731Z,2.33
2018-10-02T14:21:14.414Z,2.30
2018-10-02T14:23:44.297Z,2.57
2018-10-02T14:26:13.995Z,2.70
2018-10-02T14:28:43.913Z,2.70
2018-10-02T14:31:13.689Z,2.80
2018-10-02T14:33:43.442Z,3.87
2018-10-02T14:36:13.158Z,3.57
2018-10-02T14:38:42.994Z,3.07
2018-10-02T14:41:12.932Z,3.80
2018-10-02T14:43:42.820Z,3.80
2018-10-02T14:46:12.550Z,4.20
2018-10-02T14:48:42.362Z,4.70
2018-10-02T14:51:21.704Z,4.27
2018-10-02T14:53:51.879Z,4.37
2018-10-02T14:56:21.764Z,4.40
2018-10-02T14:58:52.531Z,4.07
2018-10-02T15:01:22.543Z,4.17
2018-10-02T15:03:54.076Z,4.70
2018-10-02T15:06:24.869Z,4.20
2018-10-02T15:09:04.023Z,4.53
2018-10-02T15:14:28.071Z,6.50
2018-10-02T15:16:57.793Z,7.37
2018-10-02T15:19:27.508Z,5.67
2018-10-02T15:21:57.231Z,6.10
2018-10-02T15:24:27.036Z,6.33
2018-10-02T15:26:56.805Z,5.67
2018-10-02T15:29:26.509Z,5.60
2018-10-02T15:31:56.329Z,5.37
2018-10-02T15:34:26.305Z,6.10
2018-10-02T15:36:56.143Z,7.10
2018-10-02T15:39:25.966Z,7.17
2018-10-02T15:41:55.806Z,5.93
2018-10-02T15:44:25.530Z,6.50
2018-10-02T15:46:55.223Z,6.37
2018-10-02T15:49:25.044Z,7.83
2018-10-02T15:51:54.862Z,6.70
2018-10-02T15:54:24.557Z,7.17
2018-10-02T15:56:54.317Z,7.27
2018-10-02T15:59:24.011Z,6.70
2018-10-02T16:01:54.099Z,7.23
2018-10-02T16:04:23.861Z,6.93
2018-10-02T16:06:53.707Z,6.97
2018-10-02T16:09:23.398Z,7.60
2018-10-02T16:11:53.183Z,6.90
2018-10-02T16:14:22.846Z,6.63
2018-10-02T16:16:52.513Z,6.83
2018-10-02T16:19:22.219Z,6.93
2018-10-02T16:21:51.922Z,7.10
2018-10-02T16:24:21.695Z,6.80
2018-10-02T16:26:51.501Z,6.47
2018-10-02T16:29:21.337Z,6.60
2018-10-02T16:31:51.052Z,8.43
2018-10-02T16:34:20.862Z,8.30
2018-10-02T16:36:50.515Z,8.10
2018-10-02T16:39:20.301Z,7.23
2018-10-02T16:41:50.013Z,8.60
2018-10-02T16:44:19.758Z,8.67
2018-10-02T16:46:49.535Z,8.33
2018-10-02T16:49:19.257Z,9.27
2018-10-02T16:51:51.856Z,9.30
2018-10-02T16:54:21.677Z,9.93
2018-10-02T16:56:51.395Z,8.33
2018-10-02T16:59:21.102Z,9.93
2018-10-02T17:01:50.814Z,9.53
2018-10-02T17:04:20.585Z,10.73
2018-10-02T17:06:50.434Z,9.90
2018-10-02T17:09:20.145Z,10.27
2018-10-02T17:11:49.864Z,11.80
2018-10-02T17:14:19.618Z,11.73
2018-10-02T17:16:49.536Z,11.43
2018-10-02T17:19:19.303Z,12.00
2018-10-02T17:21:49.104Z,11.37
2018-10-02T17:24:18.811Z,10.40
2018-10-02T17:26:48.550Z,11.37
2018-10-02T17:29:18.262Z,11.60
2018-10-02T17:31:47.953Z,13.00
2018-10-02T17:34:17.618Z,11.23
2018-10-02T17:36:47.306Z,12.37
2018-10-02T17:39:17.013Z,12.77
2018-10-02T17:41:46.814Z,13.20
2018-10-02T17:44:16.493Z,12.93
2018-10-02T17:46:46.209Z,12.60
2018-10-02T17:49:15.966Z,13.13
2018-10-02T17:51:45.785Z,12.30
2018-10-02T17:54:15.502Z,10.90
2018-10-02T17:56:45.377Z,15.97
2018-10-02T17:59:15.214Z,14.70
2018-10-02T18:01:45.035Z,12.33
2018-10-02T18:04:14.908Z,12.63
2018-10-02T18:06:44.910Z,13.57
2018-10-02T18:09:14.642Z,14.23
2018-10-02T18:11:44.361Z,14.00
2018-10-02T18:14:14.111Z,16.13
2018-10-02T18:16:43.879Z,15.80
2018-10-02T18:19:13.735Z,13.47
2018-10-02T18:21:43.445Z,12.27
2018-10-02T18:24:13.194Z,14.80
2018-10-02T18:26:43.030Z,13.70
2018-10-02T18:29:12.849Z,13.20
2018-10-02T18:31:42.637Z,12.40
2018-10-02T18:34:12.530Z,13.03
2018-10-02T18:36:42.322Z,12.83
2018-10-02T18:39:12.230Z,14.23
2018-10-02T18:41:41.980Z,13.60
2018-10-02T18:44:11.717Z,13.80
2018-10-02T18:46:41.437Z,13.17
2018-10-02T18:49:11.311Z,11.70
2018-10-02T18:51:41.044Z,10.90
2018-10-02T18:54:10.771Z,10.73
2018-10-02T18:56:40.729Z,12.73
2018-10-02T18:59:10.353Z,10.23
2018-10-02T19:01:40.108Z,10.80
2018-10-02T19:04:09.837Z,9.70
2018-10-02T19:06:39.648Z,10.03
2018-10-02T19:09:13.122Z,10.10
2018-10-02T19:11:48.083Z,10.57
2018-10-02T19:14:18.829Z,10.63
2018-10-02T19:16:48.703Z,9.97
2018-10-02T19:19:23.683Z,10.07
2018-10-02T19:21:53.628Z,10.30
2018-10-02T19:24:23.490Z,10.37
2018-10-02T19:26:53.342Z,11.00
2018-10-02T19:29:23.234Z,10.37
2018-10-02T19:31:58.095Z,9.80
2018-10-02T19:34:27.905Z,10.77
2018-10-02T19:36:57.779Z,10.80
2018-10-02T19:39:29.362Z,10.73
2018-10-02T19:42:00.107Z,11.33
2018-10-02T19:44:29.855Z,10.00
2018-10-02T19:47:01.257Z,12.30
2018-10-02T19:49:32.422Z,12.40
2018-10-02T19:52:06.210Z,14.87
2018-10-02T19:54:35.972Z,12.63
2018-10-02T19:57:06.495Z,10.27
2018-10-02T19:59:36.206Z,12.90
2018-10-02T20:02:06.019Z,13.60
2018-10-02T20:04:36.101Z,11.97
2018-10-02T20:07:06.003Z,13.20
2018-10-02T20:09:35.681Z,14.57
2018-10-02T20:12:05.364Z,14.73
2018-10-02T20:14:35.116Z,12.53
2018-10-02T20:17:04.926Z,12.73
2018-10-02T20:19:34.656Z,11.53
2018-10-02T20:22:04.472Z,11.70
2018-10-02T20:24:34.426Z,13.17
2018-10-02T20:27:04.360Z,12.77
2018-10-02T20:29:34.050Z,13.67
2018-10-02T20:32:04.050Z,13.30
2018-10-02T20:34:33.826Z,13.97
2018-10-02T20:37:03.536Z,13.33
2018-10-02T20:39:33.440Z,13.23
2018-10-02T20:42:03.197Z,13.43
2018-10-02T20:44:32.965Z,12.47
2018-10-02T20:47:02.717Z,13.07
2018-10-02T20:49:32.605Z,13.47
2018-10-02T20:52:02.378Z,13.30
2018-10-02T20:54:32.158Z,14.07
2018-10-02T20:57:02.051Z,13.90
2018-10-02T20:59:32.039Z,12.93
2018-10-02T21:02:01.773Z,15.10
2018-10-02T21:04:31.606Z,14.93
2018-10-02T21:07:01.416Z,14.40
2018-10-02T21:09:31.165Z,14.87
2018-10-02T21:12:00.920Z,15.20
2018-10-02T21:14:30.740Z,16.90
2018-10-02T21:17:00.476Z,16.60
2018-10-02T21:19:30.223Z,15.87
2018-10-02T21:22:00.026Z,15.27
2018-10-02T21:24:29.926Z,19.03
2018-10-02T21:26:59.589Z,18.20
2018-10-02T21:29:29.506Z,19.20
2018-10-02T21:31:59.321Z,19.17
2018-10-02T21:34:29.123Z,20.90
2018-10-02T21:36:58.807Z,21.30
2018-10-02T21:39:28.511Z,21.70
2018-10-02T21:41:58.334Z,20.60
2018-10-02T21:44:28.080Z,21.83
2018-10-02T21:46:58.161Z,22.13
2018-10-02T21:49:27.978Z,24.50
2018-10-02T21:51:57.767Z,22.30
2018-10-02T21:54:27.590Z,21.70
2018-10-02T21:56:57.646Z,22.03
2018-10-02T21:59:27.473Z,22.30
2018-10-02T22:01:57.272Z,22.60
2018-10-02T22:04:27.019Z,22.33
2018-10-02T22:06:56.746Z,22.40
2018-10-02T22:09:26.641Z,22.30
2018-10-02T22:11:56.532Z,22.17
2018-10-02T22:14:26.292Z,23.17
2018-10-02T22:16:55.961Z,22.90
2018-10-02T22:19:25.896Z,22.20
2018-10-02T22:21:55.881Z,21.30
2018-10-02T22:24:25.642Z,23.60
2018-10-02T22:26:55.429Z,23.17
2018-10-02T22:29:25.109Z,23.03
2018-10-02T22:31:54.922Z,19.83
2018-10-02T22:34:24.641Z,22.67
2018-10-02T22:36:54.413Z,22.43
2018-10-02T22:39:24.271Z,22.90
2018-10-02T22:41:53.989Z,23.73
2018-10-02T22:44:23.711Z,22.53
2018-10-02T22:46:53.425Z,21.80
2018-10-02T22:49:23.184Z,20.77
2018-10-02T22:51:52.998Z,22.97
2018-10-02T22:54:22.760Z,21.23
2018-10-02T22:56:52.445Z,21.87
2018-10-02T22:59:22.195Z,22.07
2018-10-02T23:01:51.884Z,21.87
2018-10-02T23:04:21.577Z,21.23
2018-10-02T23:06:51.278Z,23.00
2018-10-02T23:09:21.015Z,22.67
2018-10-02T23:11:50.722Z,24.20
2018-10-02T23:14:20.389Z,24.60
2018-10-02T23:16:50.201Z,23.33
2018-10-02T23:19:19.930Z,23.20
2018-10-02T23:21:50.163Z,24.03
2018-10-02T23:24:19.929Z,22.43
2018-10-02T23:26:49.597Z,22.23
2018-10-02T23:29:19.265Z,21.40
2018-10-02T23:31:49.081Z,22.87
2018-10-02T23:34:18.913Z,22.10
2018-10-02T23:36:48.634Z,21.57
2018-10-02T23:39:18.471Z,21.80
2018-10-02T23:41:48.170Z,20.83
2018-10-02T23:44:17.901Z,21.33
2018-10-02T23:46:47.709Z,20.20
2018-10-02T23:49:17.425Z,20.53
2018-10-02T23:51:47.117Z,20.00
2018-10-02T23:54:16.888Z,18.10
2018-10-02T23:56:46.628Z,21.40
2018-10-02T23:59:16.977Z,20.97
